Lytle Creek, California
Current Conditions -  °F | °C
As of 7:53 AM on Saturday 25 Oct 2014 (Local Time) from KONT Reporting Station
Broken Clouds Broken Clouds  
Wind Chill: 69°   Ceiling: 10000
Heat Index: 69°   Visibility: 8mi
Dew Point: 41°   Wind: 0mph
Humidity: 36%   Direction: NA
Pressure: 30.03"   Gusts: NA
Location:  34.26°N, 117.5°W
Report Text: KONT 251453Z 00000KT 8SM BKN100 21/05 A3003 RMK AO2 SLP155 T02060050 53012
Loading
Personal Weather Stations






























Interactive Weather Map
Tropical Storm Tracking
New forecast layout! Learn more

10-Day Weather Forecast

Advertisements
Track Severe Weather on mobile